createdAt,value
2023-08-11T00:01:19.059Z,26.04
2023-08-11T00:06:21.410Z,25.95
2023-08-11T00:11:24.477Z,25.84
2023-08-11T00:16:26.716Z,25.82
2023-08-11T00:21:28.967Z,25.95
2023-08-11T00:26:34.002Z,25.93
2023-08-11T00:31:37.177Z,25.91
2023-08-11T00:36:39.608Z,25.97
2023-08-11T00:41:42.224Z,25.93
2023-08-11T00:46:45.043Z,25.74
2023-08-11T00:51:48.000Z,25.83
2023-08-11T00:56:50.641Z,25.63
2023-08-11T01:01:53.016Z,25.78
2023-08-11T01:07:26.689Z,25.72
2023-08-11T01:12:47.726Z,25.61
2023-08-11T01:17:50.721Z,25.78
2023-08-11T01:22:56.790Z,25.71
2023-08-11T01:28:00.301Z,25.78
2023-08-11T01:33:02.876Z,25.79
2023-08-11T01:38:05.317Z,25.78
2023-08-11T01:43:10.293Z,25.66
2023-08-11T01:48:14.373Z,25.53
2023-08-11T01:53:16.796Z,25.55
2023-08-11T01:58:19.135Z,25.56
2023-08-11T02:03:23.036Z,25.19
2023-08-11T02:08:25.376Z,25.26
2023-08-11T02:13:27.637Z,25.48
2023-08-11T02:18:29.856Z,25.54
2023-08-11T02:23:32.148Z,25.43
2023-08-11T02:28:34.619Z,25.38
2023-08-11T02:33:37.407Z,25.25
2023-08-11T02:38:40.060Z,25.37
2023-08-11T02:43:42.337Z,25.26
2023-08-11T02:48:44.589Z,24.94
2023-08-11T02:53:46.940Z,25.00
2023-08-11T02:58:49.727Z,25.29
2023-08-11T03:03:51.993Z,25.27
2023-08-11T03:08:54.241Z,25.33
2023-08-11T03:13:56.491Z,25.24
2023-08-11T03:18:58.732Z,25.19
2023-08-11T03:24:01.319Z,25.11
2023-08-11T03:29:03.660Z,25.05
2023-08-11T03:34:05.863Z,25.28
2023-08-11T03:39:08.061Z,25.27
2023-08-11T03:44:10.326Z,25.13
2023-08-11T03:49:13.400Z,24.91
2023-08-11T03:54:15.626Z,25.05
2023-08-11T03:59:17.909Z,24.81
2023-08-11T04:04:20.254Z,24.91
2023-08-11T04:09:22.627Z,24.92
2023-08-11T04:14:25.990Z,25.11
2023-08-11T04:19:28.260Z,25.20
2023-08-11T04:24:30.507Z,25.10
2023-08-11T04:29:32.787Z,24.97
2023-08-11T04:34:35.436Z,24.99
2023-08-11T04:39:38.599Z,24.88
2023-08-11T04:44:40.853Z,24.88
2023-08-11T04:49:43.632Z,25.20
2023-08-11T04:54:46.227Z,25.01
2023-08-11T04:59:49.744Z,25.27
2023-08-11T05:04:52.036Z,25.02
2023-08-11T05:09:54.379Z,25.32
2023-08-11T05:14:56.629Z,25.17
2023-08-11T05:19:59.161Z,25.18
2023-08-11T05:25:03.957Z,25.39
2023-08-11T05:30:08.884Z,25.37
2023-08-11T05:35:11.239Z,25.38
2023-08-11T05:40:13.656Z,25.29
2023-08-11T05:45:18.034Z,25.34
2023-08-11T05:50:21.629Z,25.33
2023-08-11T05:55:24.333Z,25.40
2023-08-11T06:00:26.611Z,25.42
2023-08-11T06:05:29.434Z,25.40
2023-08-11T06:10:32.470Z,25.67
2023-08-11T06:15:34.680Z,25.72
2023-08-11T06:20:41.585Z,25.93
2023-08-11T06:25:44.785Z,25.74
2023-08-11T06:30:47.519Z,26.11
2023-08-11T06:35:49.917Z,26.00
2023-08-11T06:40:53.533Z,25.94
2023-08-11T06:46:01.124Z,26.32
2023-08-11T06:51:05.898Z,26.48
2023-08-11T06:56:08.803Z,26.70
2023-08-11T07:01:11.216Z,26.97
2023-08-11T07:06:13.981Z,27.18
2023-08-11T07:11:19.989Z,27.37
2023-08-11T07:16:23.256Z,27.31
2023-08-11T07:21:26.073Z,27.76
2023-08-11T07:26:28.370Z,27.50
2023-08-11T07:31:30.887Z,27.46
2023-08-11T07:36:33.277Z,27.52
2023-08-11T07:41:36.288Z,27.60
2023-08-11T07:46:38.677Z,27.60
2023-08-11T07:51:42.641Z,27.76
2023-08-11T07:56:46.410Z,27.86
2023-08-11T08:01:53.728Z,28.00
2023-08-11T08:06:56.463Z,28.13
2023-08-11T08:11:58.699Z,28.14
2023-08-11T08:17:02.885Z,28.41
2023-08-11T08:22:07.903Z,28.52
2023-08-11T08:27:11.197Z,28.80
2023-08-11T08:32:13.573Z,28.88
2023-08-11T08:37:22.648Z,28.74
2023-08-11T08:42:27.151Z,29.00
2023-08-11T08:47:30.453Z,29.31
2023-08-11T08:52:33.982Z,29.34
2023-08-11T08:57:36.308Z,29.56
2023-08-11T09:02:39.097Z,29.64
2023-08-11T09:07:41.587Z,29.46
2023-08-11T09:12:46.303Z,29.73
2023-08-11T09:17:49.320Z,29.73
2023-08-11T09:22:51.757Z,29.93
2023-08-11T09:27:54.078Z,30.01
2023-08-11T09:32:56.782Z,30.00
2023-08-11T09:37:59.081Z,30.01
2023-08-11T09:43:01.393Z,30.32
2023-08-11T09:48:03.994Z,30.58
2023-08-11T09:53:07.816Z,30.73
2023-08-11T09:58:13.826Z,30.69
2023-08-11T10:03:21.755Z,30.45
2023-08-11T10:08:27.907Z,30.80
2023-08-11T10:13:31.037Z,30.98
2023-08-11T10:18:34.368Z,31.12
2023-08-11T10:23:37.928Z,31.02
2023-08-11T10:28:40.932Z,30.64
2023-08-11T10:33:50.711Z,31.01
2023-08-11T10:39:07.537Z,31.13
2023-08-11T10:44:09.888Z,30.73
2023-08-11T10:49:12.050Z,31.38
2023-08-11T10:54:24.144Z,31.48
2023-08-11T10:59:30.385Z,31.85
2023-08-11T11:04:34.028Z,32.28
2023-08-11T11:09:36.859Z,32.50
2023-08-11T11:14:39.369Z,32.45
2023-08-11T11:19:42.147Z,32.44
2023-08-11T11:24:44.369Z,32.28
2023-08-11T11:29:46.626Z,32.35
2023-08-11T11:34:48.958Z,32.32
2023-08-11T11:39:52.093Z,31.95
2023-08-11T11:44:54.542Z,31.72
2023-08-11T11:50:00.508Z,32.07
2023-08-11T11:55:02.956Z,32.31
2023-08-11T12:00:11.412Z,32.88
2023-08-11T12:05:14.301Z,33.08
2023-08-11T12:10:18.917Z,33.36
2023-08-11T12:15:21.347Z,33.81
2023-08-11T12:20:24.355Z,34.14
2023-08-11T12:25:26.635Z,34.03
2023-08-11T12:30:29.418Z,34.12
2023-08-11T12:35:31.654Z,34.62
2023-08-11T12:40:34.720Z,34.74
2023-08-11T12:45:38.098Z,34.82
2023-08-11T12:50:42.114Z,35.11
2023-08-11T12:55:50.246Z,35.01
2023-08-11T13:00:52.542Z,35.20
2023-08-11T13:05:54.896Z,35.08
2023-08-11T13:10:57.552Z,35.25
2023-08-11T13:15:59.788Z,35.72
2023-08-11T13:21:02.275Z,35.64
2023-08-11T13:26:04.711Z,35.77
2023-08-11T13:31:07.059Z,35.76
2023-08-11T13:36:10.093Z,35.50
2023-08-11T13:41:12.375Z,35.53
2023-08-11T13:46:14.639Z,35.42
2023-08-11T13:51:17.327Z,35.65
2023-08-11T13:56:19.760Z,35.76
2023-08-11T14:01:22.085Z,36.14
2023-08-11T14:06:24.549Z,35.95
2023-08-11T14:11:26.988Z,35.79
2023-08-11T14:16:29.323Z,35.46
2023-08-11T14:21:31.573Z,35.10
2023-08-11T14:26:33.858Z,34.80
2023-08-11T14:31:36.189Z,34.66
2023-08-11T14:36:38.612Z,34.62
2023-08-11T14:41:40.945Z,34.72
2023-08-11T14:46:45.420Z,35.15
2023-08-11T14:51:49.952Z,35.51
2023-08-11T14:56:52.263Z,35.74
2023-08-11T15:01:54.469Z,35.79
2023-08-11T15:06:56.748Z,36.01
2023-08-11T15:11:59.186Z,35.97
2023-08-11T15:17:01.829Z,35.58
2023-08-11T15:22:04.198Z,36.22
2023-08-11T15:27:06.823Z,35.82
2023-08-11T15:32:09.103Z,35.99
2023-08-11T15:37:12.654Z,35.87
2023-08-11T15:42:15.117Z,35.54
2023-08-11T15:47:17.359Z,35.02
2023-08-11T15:52:19.703Z,34.76
2023-08-11T15:57:22.919Z,34.46
2023-08-11T16:02:25.761Z,33.89
2023-08-11T16:07:28.956Z,33.69
2023-08-11T16:12:31.294Z,33.53
2023-08-11T16:17:35.213Z,33.31
2023-08-11T16:22:37.447Z,33.14
2023-08-11T16:27:39.953Z,32.55
2023-08-11T16:32:42.246Z,32.49
2023-08-11T16:37:44.489Z,32.58
2023-08-11T16:42:46.786Z,32.24
2023-08-11T16:47:49.085Z,32.09
2023-08-11T16:52:57.468Z,31.86
2023-08-11T16:57:59.676Z,31.97
2023-08-11T17:03:02.072Z,31.77
2023-08-11T17:08:04.778Z,31.22
2023-08-11T17:13:07.053Z,31.45
2023-08-11T17:18:09.574Z,31.32
2023-08-11T17:23:11.883Z,31.22
2023-08-11T17:28:14.246Z,31.10
2023-08-11T17:33:16.461Z,31.33
2023-08-11T17:38:18.710Z,31.05
2023-08-11T17:43:21.026Z,31.05
2023-08-11T17:48:23.274Z,30.92
2023-08-11T17:53:25.615Z,30.95
2023-08-11T17:58:28.126Z,30.96
2023-08-11T18:03:30.451Z,30.90
2023-08-11T18:08:32.803Z,30.78
2023-08-11T18:13:35.098Z,30.68
2023-08-11T18:18:37.417Z,30.69
2023-08-11T18:23:40.065Z,30.50
2023-08-11T18:28:42.334Z,30.32
2023-08-11T18:33:44.626Z,30.29
2023-08-11T18:38:49.014Z,30.29
2023-08-11T18:43:51.252Z,30.16
2023-08-11T18:48:53.600Z,30.03
2023-08-11T18:53:56.045Z,30.04
2023-08-11T18:58:58.245Z,29.92
2023-08-11T19:04:00.533Z,30.10
2023-08-11T19:09:03.071Z,29.92
2023-08-11T19:14:06.814Z,30.02
2023-08-11T19:19:12.618Z,29.75
2023-08-11T19:24:14.931Z,29.56
2023-08-11T19:29:17.183Z,29.73
2023-08-11T19:34:19.453Z,29.63
2023-08-11T19:39:21.693Z,29.48
2023-08-11T19:44:24.766Z,29.49
2023-08-11T19:49:26.954Z,29.22
2023-08-11T19:54:29.330Z,29.09
2023-08-11T19:59:31.604Z,29.09
2023-08-11T20:04:34.014Z,28.94
2023-08-11T20:09:36.782Z,28.74
2023-08-11T20:14:38.993Z,28.77
2023-08-11T20:19:41.291Z,28.75
2023-08-11T20:24:43.550Z,28.68
2023-08-11T20:29:45.750Z,28.76
2023-08-11T20:34:48.141Z,28.63
2023-08-11T20:39:50.452Z,28.35
2023-08-11T20:44:58.253Z,28.69
2023-08-11T20:50:03.458Z,28.48
2023-08-11T20:55:06.239Z,28.62
2023-08-11T21:00:09.850Z,28.64
2023-08-11T21:05:12.482Z,28.34
2023-08-11T21:10:16.188Z,28.40
2023-08-11T21:15:18.773Z,28.10
2023-08-11T21:20:21.009Z,28.11
2023-08-11T21:25:23.291Z,28.30
2023-08-11T21:30:26.145Z,27.86
2023-08-11T21:35:28.399Z,28.03
2023-08-11T21:40:31.132Z,28.09
2023-08-11T21:45:33.404Z,27.84
2023-08-11T21:50:36.214Z,27.92
2023-08-11T21:55:38.485Z,28.07
2023-08-11T22:00:42.973Z,27.37
2023-08-11T22:05:45.186Z,27.74
2023-08-11T22:10:47.735Z,27.68
2023-08-11T22:15:51.248Z,27.73
2023-08-11T22:20:53.433Z,27.88
2023-08-11T22:25:55.695Z,27.61
2023-08-11T22:30:59.068Z,27.70
2023-08-11T22:36:01.368Z,27.74
2023-08-11T22:41:03.608Z,27.67
2023-08-11T22:46:06.033Z,27.59
2023-08-11T22:51:08.630Z,27.51
2023-08-11T22:56:11.235Z,27.64
2023-08-11T23:01:15.352Z,27.36
2023-08-11T23:06:17.716Z,27.37
2023-08-11T23:11:20.079Z,27.34
2023-08-11T23:16:22.345Z,27.26
2023-08-11T23:21:24.708Z,27.10
2023-08-11T23:26:27.056Z,27.33
2023-08-11T23:31:29.326Z,27.27
2023-08-11T23:36:31.605Z,27.06
2023-08-11T23:41:33.864Z,27.03
2023-08-11T23:46:36.249Z,26.77
2023-08-11T23:51:38.606Z,26.57
2023-08-11T23:56:43.411Z,26.67
